Time;durP1;ratioP1;P1;durP2;ratioP2;P2;SDS_P1;SDS_P2;PMS_P1;PMS_P2;Temp;Humidity;BMP_temperature;BMP_pressure;BME280_temperature;BME280_humidity;BME280_pressure;Samples;Min_cycle;Max_cycle;Signal;HPM_P1;HPM_P2
2023/08/05 00:00:38;;;;;;;;;18.00;17.00;;;;;;;;5083617;27;45926;-76
2023/08/05 00:03:03;;;;;;;;;16.67;16.67;;;;;;;;5083325;27;46256;-76
2023/08/05 00:05:28;;;;;;;;;16.67;16.33;;;;;;;;5084281;27;45276;-75
2023/08/05 00:07:54;;;;;;;;;18.00;16.00;;;;;;;;5084536;27;45280;-75
2023/08/05 00:10:19;;;;;;;;;16.67;15.33;;;;;;;;5084331;27;46192;-76
2023/08/05 00:12:44;;;;;;;;;14.00;14.00;;;;;;;;5084269;27;47052;-76
2023/08/05 00:15:09;;;;;;;;;18.67;18.67;;;;;;;;5083902;27;45410;-76
2023/08/05 00:17:35;;;;;;;;;16.00;14.00;;;;;;;;5084443;27;45360;-76
2023/08/05 00:20:00;;;;;;;;;17.33;16.33;;;;;;;;5084046;27;47085;-76
2023/08/05 00:22:25;;;;;;;;;14.33;13.33;;;;;;;;5084063;27;45346;-76
2023/08/05 00:24:50;;;;;;;;;17.67;16.33;;;;;;;;5083956;27;45339;-76
2023/08/05 00:27:15;;;;;;;;;16.67;15.33;;;;;;;;5084287;27;45584;-76
2023/08/05 00:29:41;;;;;;;;;16.33;16.33;;;;;;;;5107547;27;45437;-76
2023/08/05 00:32:06;;;;;;;;;16.67;15.67;;;;;;;;5125110;27;46670;-76
2023/08/05 00:34:31;;;;;;;;;15.00;15.00;;;;;;;;5143808;27;45430;-76
2023/08/05 00:36:56;;;;;;;;;15.33;14.67;;;;;;;;5125031;27;45336;-76
2023/08/05 00:39:21;;;;;;;;;14.67;14.67;;;;;;;;5124953;27;47446;-76
2023/08/05 00:41:47;;;;;;;;;13.00;11.67;;;;;;;;5124767;27;47033;-76
2023/08/05 00:44:12;;;;;;;;;15.67;15.67;;;;;;;;5124837;27;45331;-76
2023/08/05 00:46:37;;;;;;;;;16.00;16.00;;;;;;;;5125014;27;45172;-76
2023/08/05 00:49:03;;;;;;;;;17.33;17.33;;;;;;;;5115889;27;46680;-76
2023/08/05 00:51:29;;;;;;;;;16.67;15.00;;;;;;;;5103023;27;46418;-76
2023/08/05 00:53:54;;;;;;;;;16.00;14.00;;;;;;;;5102491;27;45373;-75
2023/08/05 00:56:19;;;;;;;;;18.00;18.00;;;;;;;;5103930;27;45467;-76
2023/08/05 00:58:45;;;;;;;;;14.67;14.67;;;;;;;;5103650;27;47144;-76
2023/08/05 01:01:10;;;;;;;;;19.33;18.33;;;;;;;;5122405;27;46216;-75
2023/08/05 01:03:36;;;;;;;;;18.00;18.00;;;;;;;;5103921;27;45333;-76
2023/08/05 01:06:01;;;;;;;;;16.33;16.33;;;;;;;;5103989;27;45262;-76
2023/08/05 01:08:27;;;;;;;;;17.33;17.33;;;;;;;;5103732;27;45903;-76
2023/08/05 01:10:52;;;;;;;;;21.00;19.67;;;;;;;;5103850;27;47237;-76
2023/08/05 01:13:18;;;;;;;;;18.67;17.67;;;;;;;;5103635;27;45332;-76
2023/08/05 01:15:44;;;;;;;;;23.00;20.00;;;;;;;;5103519;27;45541;-76
2023/08/05 01:18:10;;;;;;;;;16.67;15.33;;;;;;;;5103676;27;45795;-76
2023/08/05 01:20:39;;;;;;;;;17.00;17.00;;;;;;;;5103448;27;47510;-77
2023/08/05 01:23:17;;;;;;;;;17.67;17.33;;;;;;;;5103614;27;45364;-75
2023/08/05 01:25:43;;;;;;;;;16.33;16.33;;;;;;;;5103618;27;45320;-76
2023/08/05 01:28:08;;;;;;;;;15.67;15.67;;;;;;;;5103573;27;46154;-76
2023/08/05 01:30:34;;;;;;;;;14.00;14.00;;;;;;;;5122526;27;47231;-76
2023/08/05 01:33:00;;;;;;;;;17.33;17.33;;;;;;;;5124174;27;45357;-76
2023/08/05 01:35:25;;;;;;;;;19.67;18.00;;;;;;;;5123896;27;45293;-76
2023/08/05 01:37:51;;;;;;;;;20.33;18.33;;;;;;;;5123878;27;46562;-76
2023/08/05 01:40:16;;;;;;;;;19.33;18.33;;;;;;;;5123862;27;45363;-76
2023/08/05 01:42:41;;;;;;;;;16.33;15.67;;;;;;;;5123988;27;45151;-76
2023/08/05 01:45:07;;;;;;;;;19.33;17.67;;;;;;;;5123706;27;45302;-76
2023/08/05 01:47:32;;;;;;;;;14.67;14.00;;;;;;;;5124041;27;45302;-76
2023/08/05 01:49:57;;;;;;;;;18.67;18.67;;;;;;;;5123673;27;47176;-76
2023/08/05 01:52:23;;;;;;;;;20.00;19.67;;;;;;;;5123737;27;45864;-76
2023/08/05 01:54:48;;;;;;;;;22.00;21.00;;;;;;;;5123737;27;45560;-76
2023/08/05 01:57:13;;;;;;;;;21.67;21.67;;;;;;;;5123872;27;46091;-76
2023/08/05 01:59:38;;;;;;;;;21.33;20.33;;;;;;;;5123195;27;47345;-76
2023/08/05 02:02:04;;;;;;;;;20.67;20.67;;;;;;;;5142204;27;45295;-76
2023/08/05 02:04:29;;;;;;;;;19.67;19.67;;;;;;;;5142478;27;45400;-76
2023/08/05 02:06:54;;;;;;;;;22.00;21.00;;;;;;;;5123452;27;45573;-76
2023/08/05 02:09:19;;;;;;;;;21.67;19.33;;;;;;;;5123309;27;47977;-76
2023/08/05 02:11:45;;;;;;;;;20.00;19.33;;;;;;;;5123565;27;45297;-76
2023/08/05 02:14:10;;;;;;;;;19.33;18.67;;;;;;;;5123285;27;45410;-76
2023/08/05 02:16:35;;;;;;;;;23.00;23.00;;;;;;;;5123480;27;46139;-76
2023/08/05 02:19:00;;;;;;;;;23.33;23.33;;;;;;;;5123239;27;45347;-76
2023/08/05 02:21:26;;;;;;;;;25.67;24.67;;;;;;;;5123061;27;45379;-75
2023/08/05 02:23:52;;;;;;;;;20.67;20.00;;;;;;;;5123454;27;45391;-76
2023/08/05 02:26:17;;;;;;;;;20.67;20.67;;;;;;;;5122442;27;45775;-76
2023/08/05 02:28:42;;;;;;;;;22.33;22.00;;;;;;;;5119090;27;45471;-76
2023/08/05 02:31:07;;;;;;;;;26.33;24.67;;;;;;;;5102425;27;45366;-76
2023/08/05 02:33:33;;;;;;;;;22.67;22.33;;;;;;;;5102636;27;45377;-76
2023/08/05 02:35:58;;;;;;;;;26.67;25.67;;;;;;;;5102209;27;47065;-77
2023/08/05 02:38:23;;;;;;;;;25.67;25.67;;;;;;;;5102377;27;45355;-76
2023/08/05 02:40:48;;;;;;;;;23.67;23.67;;;;;;;;5102192;27;45333;-76
2023/08/05 02:43:14;;;;;;;;;24.00;24.00;;;;;;;;5102553;27;45556;-76
2023/08/05 02:45:39;;;;;;;;;25.33;23.33;;;;;;;;5101993;27;45832;-75
2023/08/05 02:48:05;;;;;;;;;26.67;25.33;;;;;;;;5102219;27;46975;-75
2023/08/05 02:50:30;;;;;;;;;24.67;23.67;;;;;;;;5101997;27;45383;-76
2023/08/05 02:52:55;;;;;;;;;25.67;25.67;;;;;;;;5102437;27;45369;-76
2023/08/05 02:55:20;;;;;;;;;28.33;26.67;;;;;;;;5101714;27;45870;-77
2023/08/05 02:57:46;;;;;;;;;30.00;28.67;;;;;;;;5102087;27;47678;-76
2023/08/05 03:00:11;;;;;;;;;30.67;28.00;;;;;;;;5102084;27;45324;-76
2023/08/05 03:02:37;;;;;;;;;28.67;25.67;;;;;;;;5102212;27;45259;-76
2023/08/05 03:05:02;;;;;;;;;32.33;28.67;;;;;;;;5102131;27;46085;-76
2023/08/05 03:07:28;;;;;;;;;23.33;23.00;;;;;;;;5101998;27;46831;-76
2023/08/05 03:09:53;;;;;;;;;24.33;24.33;;;;;;;;5102102;27;45370;-76
2023/08/05 03:12:18;;;;;;;;;21.67;21.67;;;;;;;;5102059;27;45323;-76
2023/08/05 03:14:43;;;;;;;;;22.67;22.33;;;;;;;;5101675;27;46476;-76
2023/08/05 03:17:09;;;;;;;;;20.33;19.67;;;;;;;;5101877;27;46647;-76
2023/08/05 03:19:34;;;;;;;;;20.33;20.33;;;;;;;;5102120;27;45349;-76
2023/08/05 03:21:59;;;;;;;;;20.67;20.67;;;;;;;;5101794;27;45364;-76
2023/08/05 03:24:24;;;;;;;;;23.00;21.33;;;;;;;;5101927;27;47483;-76
2023/08/05 03:26:49;;;;;;;;;14.33;14.33;;;;;;;;5101716;27;45372;-76
2023/08/05 03:29:15;;;;;;;;;21.33;20.00;;;;;;;;5109905;27;45285;-76
2023/08/05 03:31:40;;;;;;;;;24.00;23.33;;;;;;;;5122432;27;45366;-76
2023/08/05 03:34:05;;;;;;;;;20.00;18.00;;;;;;;;5122310;27;45890;-76
2023/08/05 03:36:31;;;;;;;;;18.67;18.00;;;;;;;;5122088;27;47538;-76
2023/08/05 03:38:56;;;;;;;;;19.33;18.33;;;;;;;;5124369;27;45327;-76
2023/08/05 03:41:21;;;;;;;;;21.67;19.33;;;;;;;;5144590;27;45291;-76
2023/08/05 03:43:46;;;;;;;;;18.33;17.33;;;;;;;;5125636;27;45857;-76
2023/08/05 03:46:12;;;;;;;;;17.00;16.00;;;;;;;;5125645;27;46985;-76
2023/08/05 03:48:37;;;;;;;;;17.00;17.00;;;;;;;;5125600;27;45316;-76
2023/08/05 03:51:02;;;;;;;;;15.33;15.00;;;;;;;;5125705;27;45351;-76
2023/08/05 03:53:27;;;;;;;;;16.00;15.67;;;;;;;;5125811;27;45937;-76
2023/08/05 03:55:53;;;;;;;;;13.67;13.00;;;;;;;;5125508;27;46241;-76
2023/08/05 03:58:19;;;;;;;;;16.00;15.33;;;;;;;;5125756;27;45284;-76
2023/08/05 04:00:45;;;;;;;;;17.00;14.00;;;;;;;;5144402;27;45205;-76
2023/08/05 04:03:10;;;;;;;;;17.67;17.67;;;;;;;;5125550;27;46784;-76
2023/08/05 04:05:35;;;;;;;;;15.00;15.00;;;;;;;;5125235;27;48408;-76
2023/08/05 04:08:01;;;;;;;;;15.67;15.00;;;;;;;;5125560;27;45310;-76
2023/08/05 04:10:26;;;;;;;;;15.67;15.67;;;;;;;;5125392;27;45253;-76
2023/08/05 04:12:51;;;;;;;;;17.33;16.00;;;;;;;;5108214;27;46076;-76
2023/08/05 04:15:18;;;;;;;;;14.00;14.00;;;;;;;;5125088;27;45317;-75
2023/08/05 04:17:44;;;;;;;;;18.67;17.00;;;;;;;;5108416;27;45768;-76
2023/08/05 04:20:11;;;;;;;;;19.00;15.00;;;;;;;;5125330;27;45332;-76
2023/08/05 04:22:38;;;;;;;;;15.00;15.00;;;;;;;;5125197;27;47000;-77
2023/08/05 04:25:03;;;;;;;;;16.00;16.00;;;;;;;;5125128;27;47069;-76
2023/08/05 04:27:28;;;;;;;;;14.33;14.00;;;;;;;;5124698;27;45380;-75
2023/08/05 04:29:53;;;;;;;;;12.00;10.67;;;;;;;;5110962;27;45468;-75
2023/08/05 04:32:19;;;;;;;;;15.00;14.00;;;;;;;;5104501;27;47021;-76
2023/08/05 04:34:44;;;;;;;;;14.67;14.33;;;;;;;;5104059;27;48166;-76
2023/08/05 04:37:19;;;;;;;;;11.33;11.33;;;;;;;;5104394;27;45426;-75
2023/08/05 04:39:45;;;;;;;;;15.67;14.33;;;;;;;;5104527;27;45275;-75
2023/08/05 04:42:11;;;;;;;;;9.67;9.67;;;;;;;;5104056;27;45929;-76
2023/08/05 04:44:37;;;;;;;;;13.33;13.33;;;;;;;;5104040;27;48475;-75
2023/08/05 04:47:03;;;;;;;;;13.00;11.33;;;;;;;;5104220;27;45219;-77
2023/08/05 04:49:28;;;;;;;;;12.00;12.00;;;;;;;;5103937;27;45299;-76
2023/08/05 04:51:53;;;;;;;;;12.00;10.33;;;;;;;;5103503;27;45337;-76
2023/08/05 04:54:18;;;;;;;;;15.33;12.67;;;;;;;;5103816;27;46908;-76
2023/08/05 04:56:44;;;;;;;;;10.67;10.67;;;;;;;;5103672;27;45440;-76
2023/08/05 04:59:09;;;;;;;;;10.00;9.00;;;;;;;;5103120;27;45321;-76
2023/08/05 05:01:34;;;;;;;;;9.67;9.67;;;;;;;;5103953;27;46724;-76
2023/08/05 05:03:59;;;;;;;;;15.33;12.00;;;;;;;;5103601;27;47013;-76
2023/08/05 05:06:24;;;;;;;;;11.00;10.00;;;;;;;;5103757;27;45362;-76
2023/08/05 05:08:50;;;;;;;;;10.33;9.67;;;;;;;;5103927;27;45379;-76
2023/08/05 05:11:15;;;;;;;;;12.67;12.67;;;;;;;;5103792;27;46871;-75
2023/08/05 05:13:43;;;;;;;;;11.33;11.33;;;;;;;;5087468;27;46657;-76
2023/08/05 05:16:08;;;;;;;;;11.33;11.33;;;;;;;;5103764;27;45552;-76
2023/08/05 05:18:34;;;;;;;;;12.00;11.00;;;;;;;;5103786;27;45329;-76
2023/08/05 05:21:00;;;;;;;;;9.67;9.67;;;;;;;;5103555;27;47319;-76
2023/08/05 05:23:25;;;;;;;;;10.00;10.00;;;;;;;;5103279;27;47055;-76
2023/08/05 05:25:50;;;;;;;;;10.33;10.00;;;;;;;;5103653;27;46032;-75
2023/08/05 05:28:16;;;;;;;;;10.33;10.33;;;;;;;;5103429;27;45373;-76
2023/08/05 05:30:41;;;;;;;;;11.00;10.33;;;;;;;;5123987;27;45394;-75
2023/08/05 05:33:06;;;;;;;;;10.00;10.00;;;;;;;;5123976;27;46678;-76
2023/08/05 05:35:31;;;;;;;;;12.00;11.00;;;;;;;;5123977;27;45407;-75
2023/08/05 05:37:56;;;;;;;;;15.33;15.33;;;;;;;;5124130;27;45274;-76
2023/08/05 05:40:22;;;;;;;;;12.00;12.00;;;;;;;;5123777;27;47444;-76
2023/08/05 05:42:49;;;;;;;;;12.67;11.00;;;;;;;;5123887;27;47139;-76
2023/08/05 05:45:14;;;;;;;;;13.67;13.00;;;;;;;;5123816;27;46045;-76
2023/08/05 05:47:40;;;;;;;;;10.00;9.00;;;;;;;;5124095;27;45352;-76
2023/08/05 05:50:06;;;;;;;;;10.67;9.33;;;;;;;;5123572;27;45973;-76
2023/08/05 05:52:31;;;;;;;;;11.00;10.33;;;;;;;;5142150;27;46538;-76
2023/08/05 05:54:56;;;;;;;;;9.00;9.00;;;;;;;;5142496;27;45350;-76
2023/08/05 05:57:23;;;;;;;;;11.67;10.67;;;;;;;;5123864;27;45495;-76
2023/08/05 05:59:48;;;;;;;;;11.33;11.33;;;;;;;;5123340;27;45868;-76
2023/08/05 06:02:14;;;;;;;;;12.67;12.67;;;;;;;;5122737;27;46293;-76
2023/08/05 06:04:39;;;;;;;;;12.00;11.67;;;;;;;;5123614;27;45379;-76
2023/08/05 06:07:04;;;;;;;;;9.00;9.00;;;;;;;;5123728;27;45280;-76
2023/08/05 06:09:31;;;;;;;;;10.67;9.67;;;;;;;;5123469;27;47255;-76
2023/08/05 06:11:56;;;;;;;;;10.33;10.33;;;;;;;;5123405;27;48117;-75
2023/08/05 06:14:21;;;;;;;;;12.00;12.00;;;;;;;;5123160;27;45691;-76
2023/08/05 06:16:47;;;;;;;;;11.00;11.00;;;;;;;;5123543;27;45261;-76
2023/08/05 06:19:12;;;;;;;;;15.67;13.00;;;;;;;;5123512;27;45886;-75
2023/08/05 06:21:37;;;;;;;;;12.33;11.67;;;;;;;;5123175;27;45255;-76
2023/08/05 06:24:02;;;;;;;;;11.00;10.00;;;;;;;;5123370;27;45465;-75
2023/08/05 06:26:28;;;;;;;;;9.00;9.00;;;;;;;;5123400;27;45179;-75
2023/08/05 06:28:53;;;;;;;;;11.67;11.33;;;;;;;;5117786;27;46525;-75
2023/08/05 06:31:19;;;;;;;;;11.67;11.67;;;;;;;;5102393;27;47601;-75
2023/08/05 06:33:44;;;;;;;;;10.33;10.33;;;;;;;;5102339;27;45322;-75
2023/08/05 06:36:09;;;;;;;;;9.00;9.00;;;;;;;;5102567;27;45361;-75
2023/08/05 06:38:34;;;;;;;;;10.00;10.00;;;;;;;;5102541;27;46769;-75
2023/08/05 06:40:59;;;;;;;;;12.33;11.00;;;;;;;;5120902;27;45438;-75
2023/08/05 06:43:25;;;;;;;;;11.33;10.00;;;;;;;;5102231;27;45558;-75
2023/08/05 06:45:50;;;;;;;;;8.00;8.00;;;;;;;;5102422;27;45332;-75
2023/08/05 06:48:15;;;;;;;;;8.00;8.00;;;;;;;;5102293;27;46816;-75
2023/08/05 06:50:40;;;;;;;;;8.67;8.33;;;;;;;;5101925;27;48047;-74
2023/08/05 06:53:06;;;;;;;;;9.67;8.33;;;;;;;;5102365;27;45692;-74
2023/08/05 06:55:31;;;;;;;;;6.67;6.67;;;;;;;;5102216;27;45247;-75
2023/08/05 06:57:56;;;;;;;;;7.00;7.00;;;;;;;;5102330;27;46848;-75
2023/08/05 07:00:21;;;;;;;;;6.67;6.67;;;;;;;;5101792;27;47224;-75
2023/08/05 07:02:46;;;;;;;;;8.67;8.67;;;;;;;;5102183;27;45317;-75
2023/08/05 07:05:12;;;;;;;;;8.67;8.67;;;;;;;;5102391;27;45343;-75
2023/08/05 07:07:37;;;;;;;;;7.00;7.00;;;;;;;;5101867;27;45996;-75
2023/08/05 07:10:07;;;;;;;;;10.00;9.67;;;;;;;;5101955;27;46766;-75
2023/08/05 07:12:33;;;;;;;;;9.33;7.67;;;;;;;;5103310;27;45462;-75
2023/08/05 07:14:58;;;;;;;;;4.00;4.00;;;;;;;;5105724;27;45386;-75
2023/08/05 07:17:25;;;;;;;;;6.67;6.67;;;;;;;;5105655;27;46571;-75
2023/08/05 07:19:50;;;;;;;;;6.33;5.33;;;;;;;;5124117;27;45347;-76
2023/08/05 07:22:15;;;;;;;;;5.67;5.67;;;;;;;;5105423;27;45345;-75
2023/08/05 07:24:41;;;;;;;;;6.67;6.33;;;;;;;;5105690;27;45391;-75
2023/08/05 07:27:06;;;;;;;;;6.67;6.00;;;;;;;;5105510;27;45893;-76
2023/08/05 07:29:32;;;;;;;;;7.00;7.00;;;;;;;;5115740;27;45379;-75
2023/08/05 07:31:57;;;;;;;;;6.33;5.67;;;;;;;;5125924;27;45423;-75
2023/08/05 07:34:23;;;;;;;;;7.67;7.33;;;;;;;;5126196;27;45451;-75
2023/08/05 07:36:49;;;;;;;;;6.67;6.00;;;;;;;;5125692;27;46045;-75
2023/08/05 07:39:14;;;;;;;;;6.00;6.00;;;;;;;;5125909;27;47278;-75
2023/08/05 07:41:39;;;;;;;;;4.67;4.67;;;;;;;;5125826;27;45276;-76
2023/08/05 07:44:07;;;;;;;;;6.67;6.00;;;;;;;;5125893;27;45293;-76
2023/08/05 07:46:35;;;;;;;;;6.00;6.00;;;;;;;;5125760;27;46641;-75
2023/08/05 07:49:02;;;;;;;;;6.00;5.00;;;;;;;;5111716;27;47704;-76
2023/08/05 07:51:29;;;;;;;;;6.33;6.33;;;;;;;;5104787;27;45577;-75
2023/08/05 07:53:55;;;;;;;;;6.00;6.00;;;;;;;;5104626;27;45279;-75
2023/08/05 07:56:22;;;;;;;;;4.33;4.33;;;;;;;;5104795;27;46247;-75
2023/08/05 07:58:47;;;;;;;;;6.00;5.67;;;;;;;;5104386;27;47007;-75
2023/08/05 08:01:17;;;;;;;;;5.33;5.33;;;;;;;;5102768;27;45269;-75
2023/08/05 08:03:43;;;;;;;;;6.33;6.33;;;;;;;;5124251;27;45310;-75
2023/08/05 08:06:08;;;;;;;;;6.00;6.00;;;;;;;;5124910;27;46123;-75
2023/08/05 08:08:33;;;;;;;;;6.00;6.00;;;;;;;;5124661;27;46284;-75
2023/08/05 08:10:58;;;;;;;;;6.33;5.00;;;;;;;;5119452;27;45357;-75
2023/08/05 08:13:24;;;;;;;;;7.00;7.00;;;;;;;;5122786;27;45315;-75
2023/08/05 08:15:49;;;;;;;;;7.00;5.00;;;;;;;;5124920;27;46291;-75
2023/08/05 08:18:14;;;;;;;;;4.00;4.00;;;;;;;;5105350;27;45679;-75
2023/08/05 08:20:39;;;;;;;;;2.67;2.00;;;;;;;;5104040;27;45353;-75
2023/08/05 08:23:04;;;;;;;;;4.00;4.00;;;;;;;;5119704;27;45457;-75
2023/08/05 08:25:30;;;;;;;;;4.00;4.00;;;;;;;;5103838;27;45848;-75
2023/08/05 08:27:55;;;;;;;;;2.00;2.00;;;;;;;;5103216;27;47771;-74
2023/08/05 08:30:20;;;;;;;;;3.67;3.00;;;;;;;;5139824;27;45391;-76
2023/08/05 08:32:45;;;;;;;;;3.00;3.00;;;;;;;;5110670;27;45343;-75
2023/08/05 08:35:11;;;;;;;;;3.00;3.00;;;;;;;;5103839;27;45536;-75
2023/08/05 08:37:36;;;;;;;;;2.67;2.67;;;;;;;;5104174;27;47171;-74
2023/08/05 08:40:02;;;;;;;;;3.00;3.00;;;;;;;;5103974;27;45303;-75
2023/08/05 08:42:28;;;;;;;;;3.00;3.00;;;;;;;;5103992;27;45340;-75
2023/08/05 08:44:53;;;;;;;;;4.00;4.00;;;;;;;;5103974;27;46362;-75
2023/08/05 08:47:19;;;;;;;;;3.33;3.00;;;;;;;;5103744;27;47338;-75
2023/08/05 08:49:46;;;;;;;;;3.67;3.67;;;;;;;;5103961;27;45334;-75
2023/08/05 08:52:12;;;;;;;;;5.33;4.33;;;;;;;;5102970;27;45425;-75
2023/08/05 08:54:38;;;;;;;;;3.00;3.00;;;;;;;;5103975;27;45982;-75
2023/08/05 08:57:03;;;;;;;;;6.00;6.00;;;;;;;;5103974;27;46348;-75
2023/08/05 08:59:29;;;;;;;;;4.00;4.00;;;;;;;;5103620;27;45261;-74
2023/08/05 09:01:54;;;;;;;;;5.00;5.00;;;;;;;;5103992;27;45312;-76
2023/08/05 09:04:20;;;;;;;;;3.67;3.67;;;;;;;;5103724;27;46229;-75
2023/08/05 09:06:46;;;;;;;;;5.67;5.67;;;;;;;;5103673;27;46951;-76
2023/08/05 09:09:11;;;;;;;;;4.00;4.00;;;;;;;;5122351;27;45214;-75
2023/08/05 09:11:36;;;;;;;;;5.67;5.67;;;;;;;;5103917;27;45203;-76
2023/08/05 09:14:05;;;;;;;;;4.00;3.00;;;;;;;;5102815;27;46063;-75
2023/08/05 09:16:30;;;;;;;;;4.67;4.67;;;;;;;;5103514;27;46461;-76
2023/08/05 09:18:56;;;;;;;;;2.50;2.50;;;;;;;;5121866;27;45306;-74
2023/08/05 09:21:22;;;;;;;;;1.33;1.33;;;;;;;;5103628;27;45464;-76
2023/08/05 09:23:47;;;;;;;;;2.25;2.25;;;;;;;;5103658;27;46448;-75
2023/08/05 09:26:12;;;;;;;;;3.00;3.00;;;;;;;;5103474;27;47246;-76
2023/08/05 09:28:38;;;;;;;;;2.67;2.67;;;;;;;;5106284;27;45349;-75
2023/08/05 09:31:14;;;;;;;;;4.00;2.50;;;;;;;;5123447;27;45407;-76
2023/08/05 09:33:40;;;;;;;;;2.00;2.00;;;;;;;;5106490;27;46869;-75
2023/08/05 09:36:10;;;;;;;;;3.00;3.00;;;;;;;;5122353;27;45320;-73
2023/08/05 09:38:36;;;;;;;;;3.00;2.50;;;;;;;;5142743;27;45302;-75
2023/08/05 09:41:01;;;;;;;;;4.00;4.00;;;;;;;;5123879;27;45365;-75
2023/08/05 09:43:33;;;;;;;;;2.50;2.50;;;;;;;;5123769;27;46103;-75
2023/08/05 09:46:02;;;;;;;;;2.00;2.00;;;;;;;;5123931;27;47000;-75
2023/08/05 09:48:30;;;;;;;;;2.00;2.00;;;;;;;;5123881;27;45335;-75
2023/08/05 09:50:58;;;;;;;;;2.25;2.25;;;;;;;;5123770;27;45353;-75
2023/08/05 09:53:29;;;;;;;;;3.50;3.50;;;;;;;;5123768;27;46031;-75
2023/08/05 09:55:54;;;;;;;;;0.00;0.00;;;;;;;;5123742;27;45488;-75
2023/08/05 09:58:20;;;;;;;;;2.25;2.00;;;;;;;;5123640;27;45234;-75
2023/08/05 10:00:49;;;;;;;;;2.00;2.00;;;;;;;;5123797;27;45267;-75
2023/08/05 10:03:14;;;;;;;;;2.75;2.75;;;;;;;;5123815;27;46084;-75
2023/08/05 10:05:41;;;;;;;;;2.75;2.75;;;;;;;;5113219;27;47803;-75
2023/08/05 10:08:07;;;;;;;;;3.00;3.00;;;;;;;;5102422;27;45850;-75
2023/08/05 10:10:34;;;;;;;;;2.00;2.00;;;;;;;;5102112;27;45370;-75
2023/08/05 10:13:04;;;;;;;;;2.00;1.75;;;;;;;;5102096;27;46915;-75
2023/08/05 10:15:32;;;;;;;;;3.50;3.50;;;;;;;;5102614;27;47258;-75
2023/08/05 10:17:57;;;;;;;;;3.00;2.00;;;;;;;;5102848;27;45353;-75
2023/08/05 10:20:22;;;;;;;;;5.00;4.00;;;;;;;;5102930;27;45318;-75
2023/08/05 10:23:07;;;;;;;;;3.00;3.00;;;;;;;;5102569;27;45812;-75
2023/08/05 10:25:43;;;;;;;;;3.00;3.00;;;;;;;;5102727;27;45382;-75
2023/08/05 10:28:10;;;;;;;;;3.50;2.50;;;;;;;;5102429;27;45758;-75
2023/08/05 10:30:42;;;;;;;;;3.25;3.25;;;;;;;;5122329;27;45433;-75
2023/08/05 10:33:07;;;;;;;;;3.00;3.00;;;;;;;;5141813;27;45323;-75
2023/08/05 10:35:39;;;;;;;;;3.50;3.50;;;;;;;;5123055;27;47223;-75
2023/08/05 10:38:08;;;;;;;;;1.67;1.67;;;;;;;;5123261;27;45386;-74
2023/08/05 10:40:40;;;;;;;;;4.75;4.00;;;;;;;;5123141;27;45262;-75
2023/08/05 10:43:05;;;;;;;;;5.00;5.00;;;;;;;;5122593;27;45501;-75
2023/08/05 10:45:32;;;;;;;;;3.33;3.33;;;;;;;;5123155;27;48222;-75
2023/08/05 10:47:57;;;;;;;;;4.33;4.00;;;;;;;;5122590;27;45609;-75
2023/08/05 10:50:22;;;;;;;;;2.25;2.25;;;;;;;;5122854;27;45329;-76
2023/08/05 10:52:49;;;;;;;;;4.00;3.00;;;;;;;;5123053;27;47087;-76
2023/08/05 10:55:14;;;;;;;;;4.75;4.75;;;;;;;;5122846;27;45422;-75
2023/08/05 10:57:40;;;;;;;;;4.67;4.67;;;;;;;;5122903;27;45282;-76
2023/08/05 11:00:07;;;;;;;;;27.67;27.33;;;;;;;;5122839;27;45343;-75
2023/08/05 11:02:32;;;;;;;;;5.00;5.00;;;;;;;;5122478;27;46170;-75
2023/08/05 11:05:08;;;;;;;;;3.25;3.25;;;;;;;;5122708;27;46946;-75
2023/08/05 11:07:36;;;;;;;;;42.00;34.67;;;;;;;;5122622;27;45238;-76
2023/08/05 11:10:03;;;;;;;;;5.00;5.00;;;;;;;;5122903;27;45332;-75
2023/08/05 11:12:29;;;;;;;;;3.00;3.00;;;;;;;;5122310;27;45736;-74
2023/08/05 11:14:55;;;;;;;;;4.33;3.33;;;;;;;;5122385;27;47154;-75
2023/08/05 11:17:20;;;;;;;;;5.00;5.00;;;;;;;;5122385;27;45557;-74
2023/08/05 11:19:55;;;;;;;;;10.33;10.00;;;;;;;;5141466;27;45319;-75
2023/08/05 11:22:22;;;;;;;;;6.33;6.00;;;;;;;;5122466;27;46765;-75
2023/08/05 11:24:53;;;;;;;;;5.50;5.00;;;;;;;;5105337;27;48057;-75
2023/08/05 11:27:18;;;;;;;;;7.33;7.33;;;;;;;;5122326;27;45433;-75
2023/08/05 11:29:44;;;;;;;;;4.50;4.50;;;;;;;;5109837;27;45295;-75
2023/08/05 11:32:09;;;;;;;;;6.67;5.67;;;;;;;;5101893;27;46156;-75
2023/08/05 11:34:34;;;;;;;;;4.00;4.00;;;;;;;;5101408;27;47294;-74
2023/08/05 11:36:59;;;;;;;;;1.50;1.50;;;;;;;;5120254;27;45398;-75
2023/08/05 11:39:24;;;;;;;;;7.00;7.00;;;;;;;;5102032;27;45307;-75
2023/08/05 11:41:50;;;;;;;;;5.00;5.00;;;;;;;;5101541;27;45578;-75
2023/08/05 11:44:19;;;;;;;;;7.00;7.00;;;;;;;;5101413;27;47214;-75
2023/08/05 11:46:44;;;;;;;;;6.33;6.33;;;;;;;;5101353;27;45730;-75
2023/08/05 11:49:10;;;;;;;;;8.00;6.00;;;;;;;;5101788;27;45343;-76
2023/08/05 11:51:45;;;;;;;;;7.67;6.67;;;;;;;;5101311;27;45767;-76
2023/08/05 11:54:10;;;;;;;;;5.33;5.33;;;;;;;;5101318;27;45466;-75
2023/08/05 11:56:36;;;;;;;;;5.67;5.67;;;;;;;;5101601;27;45294;-75
2023/08/05 11:59:01;;;;;;;;;7.00;7.00;;;;;;;;5102057;27;45384;-75
2023/08/05 12:01:26;;;;;;;;;7.00;7.00;;;;;;;;5105067;27;46774;-76
2023/08/05 12:03:51;;;;;;;;;6.00;6.00;;;;;;;;5104781;27;47134;-75
2023/08/05 12:06:19;;;;;;;;;8.00;6.67;;;;;;;;5104494;27;45388;-75
2023/08/05 12:08:44;;;;;;;;;7.00;7.00;;;;;;;;5104218;27;45517;-76
2023/08/05 12:11:11;;;;;;;;;10.00;8.33;;;;;;;;5103826;27;45577;-75
2023/08/05 12:13:37;;;;;;;;;7.33;6.33;;;;;;;;5104461;27;46916;-75
2023/08/05 12:16:13;;;;;;;;;8.00;6.00;;;;;;;;5104732;27;45236;-76
2023/08/05 12:18:42;;;;;;;;;8.00;7.00;;;;;;;;5104675;27;45224;-75
2023/08/05 12:21:07;;;;;;;;;7.33;5.67;;;;;;;;5104437;27;45787;-76
2023/08/05 12:23:36;;;;;;;;;5.00;5.00;;;;;;;;5104390;27;46887;-75
2023/08/05 12:26:01;;;;;;;;;4.00;4.00;;;;;;;;5104503;27;45282;-76
2023/08/05 12:28:27;;;;;;;;;6.00;6.00;;;;;;;;5105839;27;45283;-76
2023/08/05 12:30:52;;;;;;;;;4.33;4.33;;;;;;;;5125089;27;45620;-76
2023/08/05 12:33:17;;;;;;;;;9.67;7.00;;;;;;;;5125144;27;47931;-75
2023/08/05 12:35:42;;;;;;;;;4.00;4.00;;;;;;;;5124885;27;45285;-76
2023/08/05 12:38:07;;;;;;;;;6.25;5.50;;;;;;;;5125320;27;45273;-77
2023/08/05 12:40:33;;;;;;;;;4.00;4.00;;;;;;;;5124625;27;46594;-75
2023/08/05 12:42:58;;;;;;;;;3.50;3.50;;;;;;;;5124832;27;47049;-76
2023/08/05 12:45:23;;;;;;;;;3.00;3.00;;;;;;;;5125145;27;45181;-75
2023/08/05 12:47:48;;;;;;;;;4.00;4.00;;;;;;;;5125044;27;45428;-76
2023/08/05 12:50:14;;;;;;;;;3.50;3.50;;;;;;;;5124551;27;46074;-75
2023/08/05 12:52:39;;;;;;;;;3.00;2.75;;;;;;;;5124928;27;47221;-75
2023/08/05 12:55:05;;;;;;;;;6.67;4.67;;;;;;;;5124706;27;45332;-75
2023/08/05 12:57:31;;;;;;;;;3.00;3.00;;;;;;;;5124869;27;45433;-75
2023/08/05 12:59:57;;;;;;;;;4.33;4.33;;;;;;;;5124435;27;46268;-75
2023/08/05 13:02:23;;;;;;;;;4.00;4.00;;;;;;;;5124758;27;48144;-75
2023/08/05 13:04:48;;;;;;;;;4.67;4.67;;;;;;;;5124612;27;45688;-75
2023/08/05 13:07:14;;;;;;;;;4.00;4.00;;;;;;;;5124551;27;45317;-75
2023/08/05 13:09:39;;;;;;;;;4.00;4.00;;;;;;;;5124260;27;45815;-75
2023/08/05 13:12:05;;;;;;;;;7.33;6.33;;;;;;;;5124547;27;47520;-75
2023/08/05 13:14:30;;;;;;;;;5.25;5.00;;;;;;;;5124230;27;45337;-75
2023/08/05 13:16:55;;;;;;;;;4.00;4.00;;;;;;;;5124694;27;45328;-75
2023/08/05 13:19:21;;;;;;;;;5.00;5.00;;;;;;;;5124424;27;45826;-75
2023/08/05 13:21:47;;;;;;;;;8.00;7.00;;;;;;;;5124278;27;47092;-75
2023/08/05 13:24:12;;;;;;;;;5.50;4.75;;;;;;;;5124246;27;45218;-75
2023/08/05 13:26:38;;;;;;;;;6.00;6.00;;;;;;;;5124368;27;45252;-76
2023/08/05 13:29:03;;;;;;;;;4.67;4.67;;;;;;;;5117270;27;45282;-75
2023/08/05 13:31:28;;;;;;;;;6.00;6.00;;;;;;;;5103521;27;47808;-75
2023/08/05 13:33:54;;;;;;;;;9.00;7.67;;;;;;;;5103535;27;45178;-75
2023/08/05 13:36:19;;;;;;;;;7.00;7.00;;;;;;;;5103261;27;45319;-75
2023/08/05 13:38:46;;;;;;;;;7.33;7.33;;;;;;;;5103566;27;45337;-74
2023/08/05 13:41:11;;;;;;;;;11.33;8.33;;;;;;;;5103173;27;46791;-75
2023/08/05 13:43:36;;;;;;;;;9.00;7.33;;;;;;;;5103125;27;45744;-75
2023/08/05 13:46:02;;;;;;;;;7.75;6.50;;;;;;;;5122147;27;45246;-75
2023/08/05 13:48:27;;;;;;;;;7.75;7.75;;;;;;;;5103207;27;47241;-75
2023/08/05 13:51:03;;;;;;;;;6.00;6.00;;;;;;;;5102775;27;46844;-76
2023/08/05 13:53:28;;;;;;;;;8.00;8.00;;;;;;;;5103226;27;45400;-75
2023/08/05 13:55:53;;;;;;;;;8.67;7.33;;;;;;;;5103376;27;45294;-75
2023/08/05 13:58:19;;;;;;;;;4.50;4.50;;;;;;;;5102836;27;45510;-75
2023/08/05 14:00:44;;;;;;;;;3.00;3.00;;;;;;;;5103023;27;46358;-74
2023/08/05 14:03:09;;;;;;;;;3.00;3.00;;;;;;;;5103039;27;45243;-75
2023/08/05 14:05:34;;;;;;;;;1.50;1.50;;;;;;;;5103100;27;45532;-74
2023/08/05 14:07:59;;;;;;;;;1.00;1.00;;;;;;;;5102807;27;45738;-75
2023/08/05 14:10:25;;;;;;;;;0.75;0.25;;;;;;;;5102802;27;47651;-75
2023/08/05 14:12:50;;;;;;;;;0.75;0.75;;;;;;;;5102635;27;45539;-75
2023/08/05 14:15:15;;;;;;;;;0.50;0.50;;;;;;;;5103090;27;45345;-75
2023/08/05 14:17:40;;;;;;;;;1.00;1.00;;;;;;;;5102786;27;45977;-75
2023/08/05 14:20:06;;;;;;;;;2.00;2.00;;;;;;;;5102793;27;46610;-75
2023/08/05 14:22:31;;;;;;;;;3.50;3.00;;;;;;;;5101920;27;45289;-75